createdAt,value
2022-10-07T00:01:41.443Z,10.79
2022-10-07T00:04:14.007Z,10.80
2022-10-07T00:06:43.897Z,10.74
2022-10-07T00:09:16.621Z,10.79
2022-10-07T00:11:47.049Z,10.79
2022-10-07T00:14:16.571Z,10.68
2022-10-07T00:16:47.140Z,10.64
2022-10-07T00:19:16.672Z,10.66
2022-10-07T00:21:46.108Z,10.71
2022-10-07T00:24:16.783Z,10.65
2022-10-07T00:26:47.262Z,10.71
2022-10-07T00:29:17.051Z,10.70
2022-10-07T00:31:46.965Z,10.63
2022-10-07T00:34:16.153Z,10.67
2022-10-07T00:36:50.798Z,10.68
2022-10-07T00:39:21.483Z,10.66
2022-10-07T00:41:54.037Z,10.70
2022-10-07T00:44:39.311Z,10.67
2022-10-07T00:47:15.629Z,10.71
2022-10-07T00:49:50.718Z,10.74
2022-10-07T00:52:21.946Z,10.85
2022-10-07T00:55:00.276Z,10.90
2022-10-07T00:57:35.953Z,11.01
2022-10-07T01:00:07.187Z,10.97
2022-10-07T01:02:38.667Z,10.88
2022-10-07T01:05:14.363Z,10.73
2022-10-07T01:07:47.950Z,10.74
2022-10-07T01:10:23.042Z,10.79
2022-10-07T01:13:08.611Z,10.77
2022-10-07T01:15:44.262Z,10.74
2022-10-07T01:18:19.905Z,10.73
2022-10-07T01:20:55.186Z,10.59
2022-10-07T01:23:38.715Z,10.52
2022-10-07T01:26:41.397Z,10.48
2022-10-07T01:29:16.603Z,10.35
2022-10-07T01:31:49.181Z,10.24
2022-10-07T01:34:19.849Z,10.07
2022-10-07T01:36:57.903Z,10.08
2022-10-07T01:39:31.553Z,10.00
2022-10-07T01:42:02.232Z,9.92
2022-10-07T01:44:33.032Z,9.93
2022-10-07T01:47:02.598Z,9.82
2022-10-07T01:49:32.277Z,9.87
2022-10-07T01:52:26.421Z,9.80
2022-10-07T01:55:35.276Z,9.69
2022-10-07T01:58:18.742Z,9.63
2022-10-07T02:00:59.441Z,9.61
2022-10-07T02:03:44.154Z,9.62
2022-10-07T02:06:25.698Z,9.64
2022-10-07T02:08:56.972Z,9.65
2022-10-07T02:11:36.850Z,9.58
2022-10-07T02:14:13.219Z,9.62
2022-10-07T02:16:47.243Z,9.56
2022-10-07T02:19:35.669Z,9.50
2022-10-07T02:22:05.526Z,9.51
2022-10-07T02:24:39.806Z,9.43
2022-10-07T02:27:15.278Z,9.35
2022-10-07T02:29:50.432Z,9.32
2022-10-07T02:32:24.854Z,9.33
2022-10-07T02:35:03.318Z,9.26
2022-10-07T02:37:37.985Z,9.32
2022-10-07T02:40:12.160Z,9.28
2022-10-07T02:42:52.667Z,9.24
2022-10-07T02:45:29.495Z,9.15
2022-10-07T02:48:09.715Z,9.08
2022-10-07T02:50:44.475Z,9.09
2022-10-07T02:53:15.318Z,9.13
2022-10-07T02:55:47.463Z,9.18
2022-10-07T02:58:18.580Z,9.29
2022-10-07T03:00:53.632Z,9.25
2022-10-07T03:03:26.428Z,9.12
2022-10-07T03:06:02.379Z,9.16
2022-10-07T03:08:33.476Z,9.30
2022-10-07T03:11:04.084Z,9.27
2022-10-07T03:13:35.336Z,9.32
2022-10-07T03:17:21.611Z,9.31
2022-10-07T03:20:14.346Z,9.27
2022-10-07T03:22:47.204Z,9.30
2022-10-07T03:25:20.070Z,9.21
2022-10-07T03:27:50.044Z,9.24
2022-10-07T03:30:24.348Z,9.30
2022-10-07T03:32:58.243Z,9.28
2022-10-07T03:35:33.501Z,9.28
2022-10-07T03:38:02.732Z,9.20
2022-10-07T03:40:33.573Z,9.16
2022-10-07T03:43:04.627Z,9.28
2022-10-07T03:45:37.536Z,9.24
2022-10-07T03:48:07.122Z,9.20
2022-10-07T03:50:40.165Z,9.21
2022-10-07T03:53:12.770Z,9.30
2022-10-07T03:55:42.183Z,9.29
2022-10-07T03:58:12.016Z,9.27
2022-10-07T04:00:42.159Z,9.31
2022-10-07T04:03:11.737Z,9.40
2022-10-07T04:05:45.594Z,9.35
2022-10-07T04:08:17.522Z,9.30
2022-10-07T04:10:47.654Z,9.25
2022-10-07T04:13:17.181Z,9.26
2022-10-07T04:15:47.514Z,9.30
2022-10-07T04:18:17.412Z,9.24
2022-10-07T04:20:48.873Z,9.22
2022-10-07T04:23:19.761Z,9.22
2022-10-07T04:25:49.978Z,9.25
2022-10-07T04:28:28.345Z,9.24
2022-10-07T04:31:08.957Z,9.33
2022-10-07T04:33:43.623Z,9.39
2022-10-07T04:36:18.016Z,9.37
2022-10-07T04:39:09.055Z,9.41
2022-10-07T04:41:46.116Z,9.46
2022-10-07T04:44:24.759Z,9.55
2022-10-07T04:47:01.421Z,9.68
2022-10-07T04:49:33.542Z,9.76
2022-10-07T04:52:08.539Z,9.81
2022-10-07T04:58:33.418Z,9.85
2022-10-07T05:01:30.322Z,9.94
2022-10-07T05:04:04.342Z,10.00
2022-10-07T05:06:36.926Z,10.22
2022-10-07T05:09:11.663Z,10.22
2022-10-07T05:12:11.191Z,10.31
2022-10-07T05:14:43.233Z,10.39
2022-10-07T05:17:19.184Z,10.62
2022-10-07T05:19:48.816Z,10.77
2022-10-07T05:22:20.860Z,10.86
2022-10-07T05:24:56.100Z,10.84
2022-10-07T05:27:26.608Z,11.23
2022-10-07T05:29:56.925Z,11.54
2022-10-07T05:32:47.478Z,11.53
2022-10-07T05:35:36.393Z,11.54
2022-10-07T05:38:07.423Z,11.64
2022-10-07T05:40:38.896Z,11.60
2022-10-07T05:43:14.269Z,11.74
2022-10-07T05:45:45.216Z,11.66
2022-10-07T05:48:16.211Z,11.87
2022-10-07T05:51:06.559Z,11.78
2022-10-07T05:53:59.474Z,11.73
2022-10-07T05:56:51.419Z,11.76
2022-10-07T05:59:24.397Z,11.74
2022-10-07T06:01:57.845Z,11.90
2022-10-07T06:04:29.664Z,11.83
2022-10-07T06:07:05.640Z,11.95
2022-10-07T06:09:53.616Z,11.98
2022-10-07T06:12:44.829Z,12.10
2022-10-07T06:15:16.784Z,11.91
2022-10-07T06:17:51.671Z,11.39
2022-10-07T06:20:26.216Z,11.47
2022-10-07T06:22:58.795Z,11.52
2022-10-07T06:26:20.000Z,11.83
2022-10-07T06:28:51.792Z,12.13
2022-10-07T06:31:25.264Z,12.07
2022-10-07T06:34:00.981Z,12.08
2022-10-07T06:36:35.522Z,12.21
2022-10-07T06:39:05.914Z,12.04
2022-10-07T06:41:41.642Z,12.03
2022-10-07T06:44:37.676Z,12.34
2022-10-07T06:47:11.714Z,12.64
2022-10-07T06:49:46.342Z,12.80
2022-10-07T06:52:16.761Z,12.71
2022-10-07T06:54:51.288Z,12.57
2022-10-07T06:57:44.404Z,12.53
2022-10-07T07:00:14.832Z,12.51
2022-10-07T07:02:46.137Z,12.12
2022-10-07T07:05:17.026Z,12.18
2022-10-07T07:07:49.707Z,12.14
2022-10-07T07:10:23.544Z,12.14
2022-10-07T07:12:55.546Z,12.12
2022-10-07T07:15:26.817Z,12.05
2022-10-07T07:17:56.871Z,12.18
2022-10-07T07:20:26.692Z,12.57
2022-10-07T07:22:56.199Z,12.84
2022-10-07T07:25:28.007Z,13.15
2022-10-07T07:28:01.028Z,13.21
2022-10-07T07:30:32.744Z,12.85
2022-10-07T07:33:04.451Z,12.50
2022-10-07T07:36:26.799Z,12.37
2022-10-07T07:39:00.207Z,12.33
2022-10-07T07:41:33.373Z,12.18
2022-10-07T07:44:05.960Z,12.23
2022-10-07T07:46:40.365Z,12.31
2022-10-07T07:49:13.850Z,12.42
2022-10-07T07:51:45.627Z,12.52
2022-10-07T07:54:21.869Z,12.89
2022-10-07T07:56:52.512Z,12.80
2022-10-07T07:59:25.078Z,12.56
2022-10-07T08:01:57.350Z,12.33
2022-10-07T08:04:27.776Z,12.51
2022-10-07T08:06:58.445Z,12.66
2022-10-07T08:09:32.055Z,12.59
2022-10-07T08:12:02.353Z,12.54
2022-10-07T08:14:38.823Z,12.32
2022-10-07T08:17:12.303Z,12.92
2022-10-07T08:19:42.640Z,13.36
2022-10-07T08:22:22.996Z,13.69
2022-10-07T08:25:00.609Z,13.78
2022-10-07T08:27:35.673Z,13.47
2022-10-07T08:30:16.942Z,13.01
2022-10-07T08:33:00.363Z,12.79
2022-10-07T08:35:50.725Z,12.86
2022-10-07T08:38:40.031Z,12.98
2022-10-07T08:42:02.929Z,13.00
2022-10-07T08:44:41.179Z,12.92
2022-10-07T08:47:20.628Z,13.01
2022-10-07T08:50:02.411Z,12.96
2022-10-07T08:52:43.516Z,12.83
2022-10-07T08:55:33.496Z,12.69
2022-10-07T08:58:31.160Z,12.83
2022-10-07T09:01:07.647Z,12.78
2022-10-07T09:03:50.264Z,12.90
2022-10-07T09:06:36.140Z,12.92
2022-10-07T09:09:18.839Z,12.93
2022-10-07T09:11:51.604Z,13.20
2022-10-07T09:14:42.586Z,13.36
2022-10-07T09:17:21.888Z,13.15
2022-10-07T09:20:00.921Z,13.60
2022-10-07T09:22:40.707Z,13.70
2022-10-07T09:25:24.083Z,13.83
2022-10-07T09:28:02.469Z,13.85
2022-10-07T09:30:56.507Z,13.65
2022-10-07T09:33:43.867Z,13.37
2022-10-07T09:36:19.801Z,13.68
2022-10-07T09:38:57.960Z,13.75
2022-10-07T09:41:35.598Z,13.97
2022-10-07T09:44:47.375Z,13.62
2022-10-07T09:47:38.268Z,13.75
2022-10-07T09:50:37.813Z,13.78
2022-10-07T09:53:31.381Z,13.74
2022-10-07T09:56:31.912Z,13.73
2022-10-07T09:59:19.242Z,14.08
2022-10-07T10:01:56.872Z,14.01
2022-10-07T10:04:35.729Z,14.06
2022-10-07T10:07:07.841Z,13.97
2022-10-07T10:09:41.393Z,14.14
2022-10-07T10:16:51.075Z,13.67
2022-10-07T10:19:51.385Z,13.97
2022-10-07T10:27:18.239Z,14.99
2022-10-07T10:31:17.936Z,15.06
2022-10-07T10:34:07.939Z,14.52
2022-10-07T10:36:56.575Z,14.38
2022-10-07T10:39:46.209Z,14.07
2022-10-07T10:42:35.464Z,14.09
2022-10-07T10:49:47.136Z,14.10
2022-10-07T10:53:12.874Z,14.38
2022-10-07T10:56:00.406Z,14.29
2022-10-07T10:59:17.944Z,14.21
2022-10-07T11:01:56.401Z,14.26
2022-10-07T11:05:03.364Z,13.86
2022-10-07T11:08:01.417Z,13.69
2022-10-07T11:10:45.368Z,13.63
2022-10-07T11:13:29.724Z,13.82
2022-10-07T11:16:24.684Z,13.78
2022-10-07T11:19:33.859Z,14.47
2022-10-07T11:23:18.715Z,14.56
2022-10-07T11:26:08.948Z,14.36
2022-10-07T11:28:42.605Z,14.15
2022-10-07T11:31:42.839Z,13.78
2022-10-07T11:34:23.390Z,13.93
2022-10-07T11:37:00.931Z,14.02
2022-10-07T11:39:45.871Z,13.97
2022-10-07T11:43:08.859Z,13.73
2022-10-07T11:45:54.126Z,13.59
2022-10-07T11:48:51.474Z,13.44
2022-10-07T11:51:26.515Z,13.28
2022-10-07T11:54:00.157Z,13.38
2022-10-07T11:56:39.996Z,13.61
2022-10-07T11:59:54.162Z,13.64
2022-10-07T12:02:49.946Z,13.60
2022-10-07T12:06:02.101Z,13.42
2022-10-07T12:08:36.236Z,13.35
2022-10-07T12:11:46.073Z,13.37
2022-10-07T12:14:43.758Z,13.30
2022-10-07T12:17:28.355Z,13.27
2022-10-07T12:20:37.441Z,13.15
2022-10-07T12:24:00.633Z,12.97
2022-10-07T12:26:52.303Z,13.03
2022-10-07T12:29:59.016Z,13.09
2022-10-07T12:33:18.622Z,13.41
2022-10-07T12:35:54.596Z,13.38
2022-10-07T12:38:31.260Z,13.32
2022-10-07T12:41:23.646Z,13.19
2022-10-07T12:44:02.787Z,13.26
2022-10-07T12:46:40.261Z,13.21
2022-10-07T12:49:19.479Z,13.13
2022-10-07T12:51:51.950Z,13.16
2022-10-07T12:54:24.718Z,13.11
2022-10-07T12:56:55.209Z,13.15
2022-10-07T12:59:48.916Z,13.17
2022-10-07T13:03:11.827Z,13.07
2022-10-07T13:06:22.882Z,13.15
2022-10-07T13:09:36.264Z,13.16
2022-10-07T13:12:26.419Z,13.11
2022-10-07T13:15:09.667Z,12.99
2022-10-07T13:17:49.418Z,12.96
2022-10-07T13:20:32.942Z,12.90
2022-10-07T13:23:17.073Z,12.82
2022-10-07T13:25:57.423Z,12.87
2022-10-07T13:28:32.908Z,12.87
2022-10-07T13:31:16.436Z,12.86
2022-10-07T13:33:49.513Z,12.75
2022-10-07T13:36:24.997Z,12.70
2022-10-07T13:39:12.756Z,12.72
2022-10-07T13:41:47.502Z,12.69
2022-10-07T13:44:20.869Z,12.63
2022-10-07T13:47:01.422Z,12.67
2022-10-07T13:49:43.105Z,12.59
2022-10-07T13:52:30.080Z,12.56
2022-10-07T13:55:48.594Z,12.57
2022-10-07T13:58:25.000Z,12.53
2022-10-07T14:01:00.950Z,12.48
2022-10-07T14:03:39.385Z,12.35
2022-10-07T14:06:53.874Z,12.32
2022-10-07T14:09:36.038Z,12.25
2022-10-07T14:12:19.368Z,12.18
2022-10-07T14:15:04.064Z,12.10
2022-10-07T14:17:49.039Z,12.04
2022-10-07T14:20:30.376Z,12.02
2022-10-07T14:23:41.448Z,12.03
2022-10-07T14:26:57.639Z,11.94
2022-10-07T14:30:58.737Z,11.73
2022-10-07T14:34:04.258Z,11.61
2022-10-07T14:36:41.427Z,11.52
2022-10-07T14:39:34.078Z,11.54
2022-10-07T14:42:20.109Z,11.43
2022-10-07T14:44:56.446Z,11.35
2022-10-07T14:47:32.203Z,11.29
2022-10-07T14:50:24.146Z,11.30
2022-10-07T14:53:18.495Z,11.30
2022-10-07T14:56:00.050Z,11.16
2022-10-07T14:58:42.110Z,11.14
2022-10-07T15:01:22.547Z,11.05
2022-10-07T15:04:31.689Z,10.80
2022-10-07T15:07:15.413Z,10.58
2022-10-07T15:09:56.337Z,10.61
2022-10-07T15:12:45.646Z,10.68
2022-10-07T15:15:19.632Z,10.65
2022-10-07T15:17:50.818Z,10.57
2022-10-07T15:20:21.405Z,10.58
2022-10-07T15:22:53.195Z,10.43
2022-10-07T15:25:26.081Z,10.36
2022-10-07T15:28:01.192Z,10.30
2022-10-07T15:30:36.883Z,10.19
2022-10-07T15:33:08.839Z,10.14
2022-10-07T15:35:38.973Z,9.97
2022-10-07T15:38:10.096Z,10.08
2022-10-07T15:41:00.300Z,9.98
2022-10-07T15:43:35.294Z,9.99
2022-10-07T15:46:09.206Z,9.99
2022-10-07T15:52:25.357Z,10.08
2022-10-07T15:55:02.577Z,9.98
2022-10-07T15:57:52.170Z,9.87
2022-10-07T16:06:00.825Z,9.80
2022-10-07T16:08:37.423Z,9.77
2022-10-07T16:11:51.988Z,9.72
2022-10-07T16:14:26.030Z,9.66
2022-10-07T16:17:04.775Z,9.64
2022-10-07T16:19:50.852Z,9.66
2022-10-07T16:26:38.841Z,9.50
2022-10-07T16:29:32.404Z,9.46
2022-10-07T16:32:18.817Z,9.43
2022-10-07T16:35:08.206Z,9.51
2022-10-07T16:40:59.211Z,9.39
2022-10-07T16:43:57.429Z,9.41
2022-10-07T16:46:33.070Z,9.46
2022-10-07T16:49:09.423Z,9.37
2022-10-07T16:52:07.566Z,9.33
2022-10-07T16:54:45.679Z,9.37
2022-10-07T16:58:11.028Z,9.36
2022-10-07T17:04:46.053Z,9.18
2022-10-07T17:07:21.709Z,9.07
2022-10-07T17:09:56.203Z,9.12
2022-10-07T17:12:34.302Z,9.11
2022-10-07T17:15:17.659Z,9.18
2022-10-07T17:17:58.469Z,9.11
2022-10-07T17:21:05.356Z,8.96
2022-10-07T17:23:52.202Z,8.97
2022-10-07T17:26:31.000Z,8.92
2022-10-07T17:29:50.055Z,8.88
2022-10-07T17:32:31.285Z,8.89
2022-10-07T17:40:05.853Z,8.65
2022-10-07T17:46:56.461Z,8.76
2022-10-07T17:50:02.254Z,8.68
2022-10-07T17:52:53.617Z,8.76
2022-10-07T17:56:05.785Z,8.66
2022-10-07T17:58:57.587Z,8.58
2022-10-07T18:01:49.918Z,8.51
2022-10-07T18:05:00.614Z,8.53
2022-10-07T18:08:54.596Z,8.58
2022-10-07T18:16:55.163Z,8.54
2022-10-07T18:20:51.503Z,8.67
2022-10-07T18:35:08.137Z,8.51
2022-10-07T18:38:17.109Z,8.58
2022-10-07T18:40:53.541Z,8.67
2022-10-07T18:43:28.456Z,8.60
2022-10-07T18:46:09.066Z,8.50
2022-10-07T18:48:48.642Z,8.42
2022-10-07T18:51:22.295Z,8.40
2022-10-07T18:53:54.060Z,8.35
2022-10-07T18:56:30.197Z,8.42
2022-10-07T18:59:02.214Z,8.37
2022-10-07T19:01:33.113Z,8.34
2022-10-07T19:04:13.173Z,8.35
2022-10-07T19:06:46.684Z,8.35
2022-10-07T19:09:21.617Z,8.32
2022-10-07T19:11:56.995Z,8.30
2022-10-07T19:19:44.501Z,8.13
2022-10-07T19:22:30.613Z,8.07
2022-10-07T19:25:36.887Z,8.11
2022-10-07T19:28:22.528Z,8.07
2022-10-07T19:35:12.185Z,7.96
2022-10-07T19:37:47.101Z,8.01
2022-10-07T19:40:38.084Z,8.02
2022-10-07T19:43:11.878Z,7.98
2022-10-07T19:45:44.422Z,7.99
2022-10-07T19:48:27.724Z,8.07
2022-10-07T19:51:03.581Z,8.05
2022-10-07T19:53:37.883Z,8.02
2022-10-07T19:56:15.957Z,7.98
2022-10-07T19:58:50.966Z,7.91
2022-10-07T20:01:25.153Z,8.04
2022-10-07T20:03:59.503Z,8.00
2022-10-07T20:06:38.706Z,7.87
2022-10-07T20:09:13.792Z,7.80
2022-10-07T20:11:44.653Z,7.82
2022-10-07T20:14:16.434Z,7.80
2022-10-07T20:16:47.802Z,7.96
2022-10-07T20:19:19.874Z,7.89
2022-10-07T20:22:08.600Z,7.83
2022-10-07T20:25:04.900Z,7.74
2022-10-07T20:27:52.930Z,7.89
2022-10-07T20:30:33.982Z,7.87
2022-10-07T20:33:08.480Z,7.84
2022-10-07T20:35:47.484Z,7.87
2022-10-07T20:38:24.704Z,7.83
2022-10-07T20:41:15.675Z,7.79
2022-10-07T20:44:38.174Z,7.71
2022-10-07T20:47:11.347Z,7.55
2022-10-07T20:49:47.229Z,7.44
2022-10-07T20:52:28.282Z,7.44
2022-10-07T20:56:19.479Z,7.43
2022-10-07T20:59:10.288Z,7.38
2022-10-07T21:01:49.661Z,7.38
2022-10-07T21:04:29.615Z,7.27
2022-10-07T21:07:05.649Z,7.22
2022-10-07T21:09:45.965Z,7.19
2022-10-07T21:12:19.975Z,7.16
2022-10-07T21:15:01.405Z,7.13
2022-10-07T21:17:36.506Z,7.16
2022-10-07T21:20:09.926Z,7.21
2022-10-07T21:22:42.045Z,7.21
2022-10-07T21:25:13.986Z,7.19
2022-10-07T21:27:49.973Z,7.11
2022-10-07T21:30:25.111Z,7.12
2022-10-07T21:33:00.256Z,7.16
2022-10-07T21:35:35.183Z,7.10
2022-10-07T21:38:09.415Z,7.25
2022-10-07T21:40:45.278Z,7.28
2022-10-07T21:43:19.680Z,7.32
2022-10-07T21:46:02.577Z,7.24
2022-10-07T21:48:32.522Z,7.22
2022-10-07T21:51:08.584Z,7.27
2022-10-07T21:57:34.316Z,7.14
2022-10-07T22:00:04.416Z,7.20
2022-10-07T22:02:43.598Z,7.12
2022-10-07T22:05:16.787Z,7.18
2022-10-07T22:08:04.813Z,7.22
2022-10-07T22:10:34.912Z,7.13
2022-10-07T22:13:06.065Z,7.08
2022-10-07T22:15:37.181Z,7.06
2022-10-07T22:18:08.483Z,7.04
2022-10-07T22:20:40.806Z,7.02
2022-10-07T22:23:14.166Z,7.11
2022-10-07T22:25:46.311Z,7.11
2022-10-07T22:28:16.368Z,7.07
2022-10-07T22:30:46.699Z,7.15
2022-10-07T22:33:18.266Z,7.11
2022-10-07T22:35:51.264Z,7.17
2022-10-07T22:38:25.603Z,7.20
2022-10-07T22:40:57.084Z,7.24
2022-10-07T22:43:32.836Z,7.24
2022-10-07T22:46:07.535Z,7.14
2022-10-07T22:48:45.679Z,7.19
2022-10-07T22:51:18.225Z,7.23
2022-10-07T22:53:53.431Z,7.17
2022-10-07T22:56:28.214Z,7.11
2022-10-07T22:59:03.087Z,7.09
2022-10-07T23:01:33.510Z,7.05
2022-10-07T23:04:06.389Z,7.17
2022-10-07T23:06:37.731Z,7.27
2022-10-07T23:09:08.135Z,7.21
2022-10-07T23:11:39.074Z,7.12
2022-10-07T23:14:09.588Z,7.00
2022-10-07T23:16:38.938Z,7.00
2022-10-07T23:19:12.803Z,7.00
2022-10-07T23:21:42.004Z,7.04
2022-10-07T23:24:16.013Z,6.96
2022-10-07T23:26:45.973Z,6.97
2022-10-07T23:29:15.720Z,6.94
2022-10-07T23:31:46.111Z,6.94
2022-10-07T23:34:18.778Z,6.86
2022-10-07T23:36:47.970Z,6.74
2022-10-07T23:39:17.187Z,6.83
2022-10-07T23:41:46.393Z,6.77
2022-10-07T23:44:16.565Z,6.89
2022-10-07T23:46:47.694Z,6.88
2022-10-07T23:49:19.183Z,6.96
2022-10-07T23:51:49.018Z,6.95
2022-10-07T23:54:20.761Z,6.93
2022-10-07T23:56:50.558Z,6.87
2022-10-07T23:59:20.002Z,6.88
